createdAt,value
2016-12-18T00:00:15.980Z,1023.77
2016-12-18T00:00:42.535Z,1023.72
2016-12-18T00:01:13.934Z,1023.68
2016-12-18T00:01:35.692Z,1023.66
2016-12-18T00:01:58.418Z,1023.68
2016-12-18T00:02:21.167Z,1023.57
2016-12-18T00:02:43.086Z,1023.58
2016-12-18T00:03:05.825Z,1023.58
2016-12-18T00:03:28.558Z,1023.65
2016-12-18T00:04:16.871Z,1023.64
2016-12-18T00:04:40.650Z,1023.59
2016-12-18T00:05:33.831Z,1023.57
2016-12-18T00:05:55.665Z,1023.50
2016-12-18T00:06:17.398Z,1023.50
2016-12-18T00:06:39.159Z,1023.58
2016-12-18T00:07:00.893Z,1023.62
2016-12-18T00:07:22.625Z,1023.60
2016-12-18T00:07:49.230Z,1023.58
2016-12-18T00:08:11.062Z,1023.53
2016-12-18T00:08:32.924Z,1023.52
2016-12-18T00:08:57.641Z,1023.52
2016-12-18T00:09:24.258Z,1023.55
2016-12-18T00:09:46.051Z,1023.53
2016-12-18T00:10:07.928Z,1023.47
2016-12-18T00:10:58.234Z,1023.59
2016-12-18T00:11:21.117Z,1023.58
2016-12-18T00:11:48.603Z,1023.57
2016-12-18T00:12:11.331Z,1023.55
2016-12-18T00:12:35.066Z,1023.49
2016-12-18T00:13:28.083Z,1023.52
2016-12-18T00:13:54.584Z,1023.44
2016-12-18T00:14:16.595Z,1023.54
2016-12-18T00:14:39.712Z,1023.51
2016-12-18T00:15:01.461Z,1023.51
2016-12-18T00:15:28.117Z,1023.56
2016-12-18T00:15:50.943Z,1023.51
2016-12-18T00:16:13.693Z,1023.49
2016-12-18T00:16:36.594Z,1023.50
2016-12-18T00:16:58.457Z,1023.54
2016-12-18T00:17:20.503Z,1023.56
2016-12-18T00:17:42.233Z,1023.49
2016-12-18T00:18:03.983Z,1023.53
2016-12-18T00:18:26.805Z,1023.47
2016-12-18T00:18:48.630Z,1023.45
2016-12-18T00:19:11.618Z,1023.51
2016-12-18T00:20:06.926Z,1023.50
2016-12-18T00:20:31.477Z,1023.58
2016-12-18T00:20:53.233Z,1023.52
2016-12-18T00:21:15.958Z,1023.56
2016-12-18T00:21:37.696Z,1023.44
2016-12-18T00:22:04.201Z,1023.58
2016-12-18T00:22:26.939Z,1023.59
2016-12-18T00:22:54.435Z,1023.65
2016-12-18T00:23:16.349Z,1023.61
2016-12-18T00:23:38.158Z,1023.66
2016-12-18T00:23:59.903Z,1023.66
2016-12-18T00:24:21.793Z,1023.65
2016-12-18T00:25:17.585Z,1023.57
2016-12-18T00:25:39.358Z,1023.60
2016-12-18T00:26:01.143Z,1023.60
2016-12-18T00:26:22.999Z,1023.59
2016-12-18T00:26:50.508Z,1023.55
2016-12-18T00:27:13.241Z,1023.61
2016-12-18T00:27:40.745Z,1023.59
2016-12-18T00:28:02.478Z,1023.57
2016-12-18T00:28:25.229Z,1023.54
2016-12-18T00:28:47.009Z,1023.56
2016-12-18T00:29:08.768Z,1023.56
2016-12-18T00:29:35.287Z,1023.57
2016-12-18T00:29:58.024Z,1023.58
2016-12-18T00:30:19.819Z,1023.60
2016-12-18T00:30:42.563Z,1023.59
2016-12-18T00:31:05.296Z,1023.63
2016-12-18T00:31:54.527Z,1023.68
2016-12-18T00:32:16.276Z,1023.73
2016-12-18T00:32:38.024Z,1023.71
2016-12-18T00:32:59.758Z,1023.73
2016-12-18T00:33:26.278Z,1023.73
2016-12-18T00:33:49.023Z,1023.75
2016-12-18T00:34:10.758Z,1023.78
2016-12-18T00:34:32.653Z,1023.71
2016-12-18T00:35:25.846Z,1023.77
2016-12-18T00:36:14.193Z,1023.80
2016-12-18T00:37:05.395Z,1023.85
2016-12-18T00:37:31.903Z,1023.89
2016-12-18T00:37:53.711Z,1023.82
2016-12-18T00:38:15.448Z,1023.85
2016-12-18T00:38:41.970Z,1023.93
2016-12-18T00:39:03.807Z,1023.89
2016-12-18T00:39:27.559Z,1023.86
2016-12-18T00:39:49.303Z,1023.83
2016-12-18T00:40:43.333Z,1023.78
2016-12-18T00:41:05.241Z,1023.91
2016-12-18T00:41:31.857Z,1023.87
2016-12-18T00:41:53.584Z,1023.91
2016-12-18T00:42:16.318Z,1023.95
2016-12-18T00:42:42.818Z,1023.92
2016-12-18T00:43:05.561Z,1023.93
2016-12-18T00:43:27.297Z,1023.97
2016-12-18T00:43:51.032Z,1023.96
2016-12-18T00:44:17.526Z,1023.95
2016-12-18T00:45:12.548Z,1023.92
2016-12-18T00:46:25.597Z,1024.14
2016-12-18T00:46:47.513Z,1024.04
2016-12-18T00:47:09.614Z,1024.11
2016-12-18T00:47:31.810Z,1024.06
2016-12-18T00:49:02.479Z,1024.09
2016-12-18T00:49:24.218Z,1024.11
2016-12-18T00:49:45.941Z,1024.01
2016-12-18T00:50:08.682Z,1024.17
2016-12-18T00:50:36.218Z,1024.03
2016-12-18T00:51:03.726Z,1024.11
2016-12-18T00:51:36.721Z,1024.07
2016-12-18T00:51:58.651Z,1023.95
2016-12-18T00:52:29.949Z,1024.14
2016-12-18T00:52:56.453Z,1024.05
2016-12-18T00:53:19.209Z,1024.05
2016-12-18T00:53:45.704Z,1023.93
2016-12-18T00:54:07.601Z,1023.98
2016-12-18T00:54:29.379Z,1023.95
2016-12-18T00:54:51.222Z,1024.00
2016-12-18T00:55:23.490Z,1023.95
2016-12-18T00:56:16.544Z,1023.91
2016-12-18T00:57:06.805Z,1024.00
2016-12-18T00:57:33.444Z,1024.01
2016-12-18T00:57:59.945Z,1023.99
2016-12-18T00:58:21.759Z,1024.00
2016-12-18T00:58:44.523Z,1024.05
2016-12-18T00:59:06.402Z,1024.03
2016-12-18T00:59:29.148Z,1024.05
2016-12-18T00:59:51.940Z,1024.01
2016-12-18T01:00:13.682Z,1024.06
2016-12-18T01:00:36.459Z,1024.04
2016-12-18T01:00:58.576Z,1024.05
2016-12-18T01:01:20.343Z,1024.06
2016-12-18T01:01:43.068Z,1024.00
2016-12-18T01:02:04.920Z,1024.14
2016-12-18T01:02:36.325Z,1024.08
2016-12-18T01:03:02.818Z,1024.08
2016-12-18T01:03:24.555Z,1024.13
2016-12-18T01:03:55.820Z,1024.04
2016-12-18T01:04:17.561Z,1024.05
2016-12-18T01:04:39.317Z,1024.08
2016-12-18T01:05:05.830Z,1024.06
2016-12-18T01:05:27.590Z,1024.16
2016-12-18T01:05:55.086Z,1024.18
2016-12-18T01:06:17.129Z,1024.12
2016-12-18T01:06:48.517Z,1024.11
2016-12-18T01:07:16.044Z,1024.08
2016-12-18T01:07:37.841Z,1024.12
2016-12-18T01:07:59.587Z,1024.12
2016-12-18T01:08:21.386Z,1024.10
2016-12-18T01:08:48.124Z,1024.17
2016-12-18T01:09:11.004Z,1024.20
2016-12-18T01:09:37.536Z,1024.22
2016-12-18T01:10:04.129Z,1024.15
2016-12-18T01:10:30.655Z,1024.14
2016-12-18T01:10:52.489Z,1024.14
2016-12-18T01:11:19.044Z,1024.18
2016-12-18T01:11:45.547Z,1024.20
2016-12-18T01:12:08.277Z,1024.20
2016-12-18T01:12:30.024Z,1024.19
2016-12-18T01:12:51.975Z,1024.12
2016-12-18T01:13:13.891Z,1024.18
2016-12-18T01:13:36.803Z,1024.16
2016-12-18T01:13:59.879Z,1024.13
2016-12-18T01:14:26.402Z,1024.01
2016-12-18T01:14:53.199Z,1024.09
2016-12-18T01:15:16.107Z,1024.11
2016-12-18T01:15:37.952Z,1024.14
2016-12-18T01:15:59.685Z,1024.06
2016-12-18T01:16:26.283Z,1024.02
2016-12-18T01:16:49.142Z,1024.14
2016-12-18T01:17:10.877Z,1024.15
2016-12-18T01:17:32.607Z,1024.12
2016-12-18T01:17:54.354Z,1024.15
2016-12-18T01:18:20.851Z,1024.09
2016-12-18T01:18:42.580Z,1024.10
2016-12-18T01:19:04.363Z,1024.13
2016-12-18T01:19:30.857Z,1024.09
2016-12-18T01:19:52.591Z,1024.08
2016-12-18T01:20:14.325Z,1024.12
2016-12-18T01:20:37.054Z,1024.19
2016-12-18T01:21:01.688Z,1024.13
2016-12-18T01:21:23.435Z,1024.08
2016-12-18T01:21:47.296Z,1024.15
2016-12-18T01:22:11.068Z,1024.21
2016-12-18T01:22:42.331Z,1024.14
2016-12-18T01:23:05.063Z,1024.18
2016-12-18T01:23:28.799Z,1024.09
2016-12-18T01:24:18.662Z,1024.13
2016-12-18T01:24:49.933Z,1023.99
2016-12-18T01:25:16.429Z,1024.12
2016-12-18T01:25:39.186Z,1024.11
2016-12-18T01:26:01.921Z,1024.15
2016-12-18T01:26:23.657Z,1024.24
2016-12-18T01:26:45.466Z,1024.13
2016-12-18T01:27:12.156Z,1024.11
2016-12-18T01:27:38.660Z,1024.09
2016-12-18T01:28:01.513Z,1024.05
2016-12-18T01:28:23.327Z,1024.03
2016-12-18T01:28:45.077Z,1024.02
2016-12-18T01:29:06.813Z,1024.09
2016-12-18T01:29:28.553Z,1024.14
2016-12-18T01:29:55.124Z,1024.04
2016-12-18T01:30:22.690Z,1024.01
2016-12-18T01:30:46.475Z,1024.04
2016-12-18T01:31:18.764Z,1024.06
2016-12-18T01:31:42.678Z,1024.08
2016-12-18T01:32:04.744Z,1024.05
2016-12-18T01:32:29.337Z,1024.07
2016-12-18T01:33:29.920Z,1024.02
2016-12-18T01:33:57.407Z,1024.05
2016-12-18T01:34:45.563Z,1024.17
2016-12-18T01:35:07.355Z,1024.10
2016-12-18T01:35:29.131Z,1024.12
2016-12-18T01:35:51.146Z,1024.07
2016-12-18T01:36:12.914Z,1024.07
2016-12-18T01:37:01.555Z,1024.13
2016-12-18T01:37:23.508Z,1024.19
2016-12-18T01:37:48.248Z,1024.19
2016-12-18T01:38:10.989Z,1024.12
2016-12-18T01:38:59.829Z,1024.08
2016-12-18T01:39:26.677Z,1024.08
2016-12-18T01:39:53.177Z,1024.08
2016-12-18T01:40:15.916Z,1024.16
2016-12-18T01:40:37.643Z,1024.17
2016-12-18T01:41:04.141Z,1024.15
2016-12-18T01:41:26.013Z,1024.11
2016-12-18T01:41:53.507Z,1024.10
2016-12-18T01:42:20.039Z,1024.16
2016-12-18T01:42:41.781Z,1024.11
2016-12-18T01:43:03.520Z,1024.08
2016-12-18T01:43:25.256Z,1024.09
2016-12-18T01:43:47.059Z,1024.17
2016-12-18T01:44:13.565Z,1024.17
2016-12-18T01:45:33.065Z,1024.18
2016-12-18T01:45:55.791Z,1024.20
2016-12-18T01:46:18.519Z,1024.19
2016-12-18T01:46:45.021Z,1024.17
2016-12-18T01:47:07.761Z,1024.17
2016-12-18T01:47:29.501Z,1024.14
2016-12-18T01:47:56.024Z,1024.12
2016-12-18T01:48:17.766Z,1024.17
2016-12-18T01:48:39.795Z,1024.13
2016-12-18T01:49:01.587Z,1024.10
2016-12-18T01:49:55.460Z,1024.12
2016-12-18T01:50:17.360Z,1024.03
2016-12-18T01:50:43.858Z,1024.06
2016-12-18T01:51:10.473Z,1024.05
2016-12-18T01:51:36.969Z,1024.05
2016-12-18T01:52:01.376Z,1024.07
2016-12-18T01:52:28.869Z,1024.05
2016-12-18T01:52:55.388Z,1024.05
2016-12-18T01:53:56.308Z,1024.01
2016-12-18T01:54:18.062Z,1024.03
2016-12-18T01:54:44.566Z,1024.05
2016-12-18T01:55:15.846Z,1024.02
2016-12-18T01:55:42.397Z,1023.99
2016-12-18T01:56:35.398Z,1023.98
2016-12-18T01:57:01.899Z,1023.86
2016-12-18T01:57:54.932Z,1023.90
2016-12-18T01:58:21.445Z,1023.86
2016-12-18T01:59:49.031Z,1023.98
2016-12-18T02:00:12.755Z,1024.05
2016-12-18T02:01:05.628Z,1023.97
2016-12-18T02:01:27.481Z,1023.90
2016-12-18T02:01:49.225Z,1023.98
2016-12-18T02:02:20.562Z,1024.08
2016-12-18T02:02:51.834Z,1024.11
2016-12-18T02:03:16.425Z,1024.02
2016-12-18T02:03:39.260Z,1023.94
2016-12-18T02:04:05.988Z,1023.87
2016-12-18T02:04:27.762Z,1023.89
2016-12-18T02:04:55.286Z,1024.03
2016-12-18T02:05:55.899Z,1024.00
2016-12-18T02:06:22.410Z,1023.84
2016-12-18T02:06:44.258Z,1023.99
2016-12-18T02:07:06.061Z,1023.86
2016-12-18T02:08:21.957Z,1023.93
2016-12-18T02:08:44.713Z,1023.92
2016-12-18T02:09:07.448Z,1023.98
2016-12-18T02:09:34.646Z,1023.93
2016-12-18T02:10:08.546Z,1023.86
2016-12-18T02:10:35.045Z,1023.89
2016-12-18T02:11:33.808Z,1023.85
2016-12-18T02:11:55.541Z,1023.87
2016-12-18T02:12:17.276Z,1023.85
2016-12-18T02:13:06.505Z,1023.84
2016-12-18T02:13:31.841Z,1023.84
2016-12-18T02:13:53.589Z,1023.83
2016-12-18T02:14:15.342Z,1023.87
2016-12-18T02:14:45.543Z,1023.89
2016-12-18T02:15:12.053Z,1023.81
2016-12-18T02:15:43.317Z,1023.84
2016-12-18T02:16:07.949Z,1023.79
2016-12-18T02:16:34.598Z,1023.79
2016-12-18T02:17:01.122Z,1023.79
2016-12-18T02:17:27.663Z,1023.82
2016-12-18T02:17:54.204Z,1023.70
2016-12-18T02:18:15.962Z,1023.78
2016-12-18T02:18:38.698Z,1023.80
2016-12-18T02:19:01.551Z,1023.63
2016-12-18T02:19:28.061Z,1023.70
2016-12-18T02:19:50.804Z,1023.75
2016-12-18T02:20:48.586Z,1023.76
2016-12-18T02:21:10.318Z,1023.61
2016-12-18T02:22:00.547Z,1023.71
2016-12-18T02:22:23.308Z,1023.55
2016-12-18T02:22:48.002Z,1023.61
2016-12-18T02:23:10.741Z,1023.63
2016-12-18T02:23:32.486Z,1023.59
2016-12-18T02:23:55.235Z,1023.57
2016-12-18T02:24:21.808Z,1023.62
2016-12-18T02:24:43.560Z,1023.63
2016-12-18T02:25:05.296Z,1023.47
2016-12-18T02:25:58.371Z,1023.58
2016-12-18T02:26:23.056Z,1023.52
2016-12-18T02:26:44.829Z,1023.59
2016-12-18T02:27:12.466Z,1023.65
2016-12-18T02:27:37.061Z,1023.58
2016-12-18T02:27:58.891Z,1023.49
2016-12-18T02:28:25.384Z,1023.42
2016-12-18T02:28:51.884Z,1023.51
2016-12-18T02:29:18.382Z,1023.42
2016-12-18T02:29:44.894Z,1023.58
2016-12-18T02:30:06.648Z,1023.66
2016-12-18T02:30:30.986Z,1023.59
2016-12-18T02:31:00.394Z,1023.53
2016-12-18T02:31:22.155Z,1023.59
2016-12-18T02:31:43.946Z,1023.54
2016-12-18T02:32:10.635Z,1023.56
2016-12-18T02:33:05.222Z,1023.65
2016-12-18T02:33:31.869Z,1023.66
2016-12-18T02:33:59.388Z,1023.57
2016-12-18T02:34:21.194Z,1023.54
2016-12-18T02:34:42.938Z,1023.55
2016-12-18T02:35:40.696Z,1023.56
2016-12-18T02:36:28.952Z,1023.61
2016-12-18T02:36:50.690Z,1023.54
2016-12-18T02:37:15.107Z,1023.45
2016-12-18T02:37:41.610Z,1023.45
2016-12-18T02:38:06.326Z,1023.40
2016-12-18T02:38:30.631Z,1023.47
2016-12-18T02:38:52.362Z,1023.44
2016-12-18T02:39:23.643Z,1023.58
2016-12-18T02:39:45.407Z,1023.59
2016-12-18T02:40:11.917Z,1023.53
2016-12-18T02:40:33.660Z,1023.52
2016-12-18T02:41:02.947Z,1023.55
2016-12-18T02:41:24.750Z,1023.53
2016-12-18T02:41:51.414Z,1023.51
2016-12-18T02:42:13.252Z,1023.45
2016-12-18T02:42:35.025Z,1023.46
2016-12-18T02:43:01.525Z,1023.41
2016-12-18T02:43:28.089Z,1023.42
2016-12-18T02:43:49.814Z,1023.47
2016-12-18T02:44:11.547Z,1023.45
2016-12-18T02:44:38.065Z,1023.48
2016-12-18T02:45:04.575Z,1023.45
2016-12-18T02:45:26.303Z,1023.38
2016-12-18T02:46:19.233Z,1023.38
2016-12-18T02:46:45.754Z,1023.44
2016-12-18T02:47:07.513Z,1023.48
2016-12-18T02:48:05.300Z,1023.46
2016-12-18T02:48:55.608Z,1023.45
2016-12-18T02:49:48.872Z,1023.46
2016-12-18T02:50:10.622Z,1023.44
2016-12-18T02:50:33.519Z,1023.47
2016-12-18T02:50:56.243Z,1023.51
2016-12-18T02:51:18.047Z,1023.35
2016-12-18T02:51:40.851Z,1023.41
2016-12-18T02:52:30.435Z,1023.40
2016-12-18T02:52:56.939Z,1023.36
2016-12-18T02:53:18.751Z,1023.42
2016-12-18T02:53:45.313Z,1023.44
2016-12-18T02:54:07.066Z,1023.38
2016-12-18T02:54:33.570Z,1023.32
2016-12-18T02:55:00.114Z,1023.34
2016-12-18T02:55:22.087Z,1023.38
2016-12-18T02:55:48.562Z,1023.49
2016-12-18T02:56:10.298Z,1023.41
2016-12-18T02:56:33.073Z,1023.40
2016-12-18T02:56:59.573Z,1023.49
2016-12-18T02:57:21.305Z,1023.43
2016-12-18T02:57:47.879Z,1023.40
2016-12-18T02:58:09.904Z,1023.44
2016-12-18T02:58:32.647Z,1023.35
2016-12-18T02:58:55.372Z,1023.33
2016-12-18T02:59:17.100Z,1023.36
2016-12-18T02:59:43.601Z,1023.37
2016-12-18T03:00:05.343Z,1023.36
2016-12-18T03:01:01.239Z,1023.35
2016-12-18T03:01:23.093Z,1023.29
2016-12-18T03:01:44.964Z,1023.35
2016-12-18T03:02:16.296Z,1023.40
2016-12-18T03:03:04.636Z,1023.49
2016-12-18T03:03:31.164Z,1023.50
2016-12-18T03:04:55.181Z,1023.44
2016-12-18T03:05:16.919Z,1023.56
2016-12-18T03:05:38.754Z,1023.45
2016-12-18T03:06:05.252Z,1023.47
2016-12-18T03:06:26.980Z,1023.43
2016-12-18T03:06:53.482Z,1023.48
2016-12-18T03:07:15.285Z,1023.46
2016-12-18T03:08:05.692Z,1023.52
2016-12-18T03:08:32.567Z,1023.48
2016-12-18T03:09:21.993Z,1023.58
2016-12-18T03:10:14.980Z,1023.53
2016-12-18T03:10:36.716Z,1023.47
2016-12-18T03:11:03.218Z,1023.43
2016-12-18T03:11:24.947Z,1023.35
2016-12-18T03:11:56.210Z,1023.36
2016-12-18T03:12:17.952Z,1023.31
2016-12-18T03:13:12.031Z,1023.41
2016-12-18T03:13:33.768Z,1023.44
2016-12-18T03:13:55.696Z,1023.48
2016-12-18T03:14:22.968Z,1023.52
2016-12-18T03:15:15.105Z,1023.44
2016-12-18T03:15:41.635Z,1023.50
2016-12-18T03:16:08.209Z,1023.48
2016-12-18T03:16:32.159Z,1023.44
2016-12-18T03:16:53.898Z,1023.48
2016-12-18T03:17:15.652Z,1023.53
2016-12-18T03:17:43.152Z,1023.45
2016-12-18T03:18:05.080Z,1023.45
2016-12-18T03:18:29.389Z,1023.48
2016-12-18T03:18:56.893Z,1023.49
2016-12-18T03:19:18.657Z,1023.43
2016-12-18T03:19:40.397Z,1023.50
2016-12-18T03:20:06.900Z,1023.55
2016-12-18T03:20:28.697Z,1023.47
2016-12-18T03:20:55.333Z,1023.44
2016-12-18T03:21:17.096Z,1023.32
2016-12-18T03:21:43.610Z,1023.26
2016-12-18T03:22:05.356Z,1023.42
2016-12-18T03:23:05.203Z,1023.34
2016-12-18T03:23:33.797Z,1023.45
2016-12-18T03:24:00.582Z,1023.42
2016-12-18T03:24:22.370Z,1023.44
2016-12-18T03:24:53.634Z,1023.39
2016-12-18T03:25:20.164Z,1023.40
2016-12-18T03:25:41.912Z,1023.45
2016-12-18T03:26:08.445Z,1023.40
2016-12-18T03:26:30.184Z,1023.38
2016-12-18T03:27:18.449Z,1023.37
2016-12-18T03:27:40.183Z,1023.42
2016-12-18T03:28:02.044Z,1023.41
2016-12-18T03:28:23.786Z,1023.52
2016-12-18T03:28:55.062Z,1023.50
2016-12-18T03:29:22.573Z,1023.44
2016-12-18T03:29:44.328Z,1023.43
2016-12-18T03:30:10.851Z,1023.42
2016-12-18T03:30:33.593Z,1023.36
2016-12-18T03:30:56.328Z,1023.35
2016-12-18T03:31:22.861Z,1023.31
2016-12-18T03:31:44.777Z,1023.25
2016-12-18T03:32:11.294Z,1023.29
2016-12-18T03:32:34.033Z,1023.31
2016-12-18T03:32:55.768Z,1023.34
2016-12-18T03:33:18.512Z,1023.32
2016-12-18T03:33:40.262Z,1023.29
2016-12-18T03:34:06.781Z,1023.28
2016-12-18T03:34:28.537Z,1023.32
2016-12-18T03:34:50.325Z,1023.41
2016-12-18T03:36:12.964Z,1023.39
2016-12-18T03:36:34.769Z,1023.41
2016-12-18T03:37:49.531Z,1023.40
2016-12-18T03:38:11.269Z,1023.42
2016-12-18T03:38:33.007Z,1023.45
2016-12-18T03:38:54.745Z,1023.43
2016-12-18T03:39:17.469Z,1023.47
2016-12-18T03:39:43.999Z,1023.38
2016-12-18T03:40:06.744Z,1023.50
2016-12-18T03:40:34.376Z,1023.42
2016-12-18T03:41:05.641Z,1023.51
2016-12-18T03:41:32.153Z,1023.41
2016-12-18T03:41:59.656Z,1023.36
2016-12-18T03:42:29.152Z,1023.33
2016-12-18T03:43:22.162Z,1023.38
2016-12-18T03:43:48.782Z,1023.37
2016-12-18T03:44:20.051Z,1023.47
2016-12-18T03:45:14.051Z,1023.49
2016-12-18T03:45:35.853Z,1023.49
2016-12-18T03:45:59.679Z,1023.53
2016-12-18T03:46:21.412Z,1023.48
2016-12-18T03:47:14.440Z,1023.39
2016-12-18T03:47:36.182Z,1023.39
2016-12-18T03:48:02.680Z,1023.41
2016-12-18T03:48:27.068Z,1023.34
2016-12-18T03:48:53.585Z,1023.27
2016-12-18T03:49:42.834Z,1023.47
2016-12-18T03:50:14.098Z,1023.47
2016-12-18T03:51:02.338Z,1023.44
2016-12-18T03:51:28.833Z,1023.39
2016-12-18T03:51:55.336Z,1023.46
2016-12-18T03:52:17.100Z,1023.45
2016-12-18T03:52:38.827Z,1023.47
2016-12-18T03:53:34.790Z,1023.44
2016-12-18T03:53:56.542Z,1023.46
2016-12-18T03:54:25.066Z,1023.45
2016-12-18T03:54:49.490Z,1023.46
2016-12-18T03:55:12.234Z,1023.45
2016-12-18T03:55:34.092Z,1023.44
2016-12-18T03:56:22.334Z,1023.44
2016-12-18T03:56:45.089Z,1023.44
2016-12-18T03:57:33.432Z,1023.43
2016-12-18T03:58:22.929Z,1023.48
2016-12-18T03:58:45.657Z,1023.33
2016-12-18T04:00:33.816Z,1023.24
2016-12-18T04:00:55.910Z,1023.29
2016-12-18T04:01:17.662Z,1023.35
2016-12-18T04:01:39.412Z,1023.37
2016-12-18T04:02:06.074Z,1023.43
2016-12-18T04:02:27.863Z,1023.37
2016-12-18T04:02:49.699Z,1023.42
2016-12-18T04:03:16.508Z,1023.40
2016-12-18T04:03:47.779Z,1023.44
2016-12-18T04:04:14.434Z,1023.37
2016-12-18T04:04:36.456Z,1023.30
2016-12-18T04:04:58.601Z,1023.33
2016-12-18T04:05:20.361Z,1023.26
2016-12-18T04:05:42.160Z,1023.26
2016-12-18T04:06:03.889Z,1023.27
2016-12-18T04:06:25.644Z,1023.31
2016-12-18T04:06:48.468Z,1023.28
2016-12-18T04:07:11.199Z,1023.35
2016-12-18T04:07:37.711Z,1023.34
2016-12-18T04:07:59.448Z,1023.27
2016-12-18T04:08:21.303Z,1023.31
2016-12-18T04:08:43.054Z,1023.19
2016-12-18T04:09:05.799Z,1023.22
2016-12-18T04:09:27.529Z,1023.25
2016-12-18T04:09:54.029Z,1023.24
2016-12-18T04:10:16.767Z,1023.32
2016-12-18T04:10:38.534Z,1023.31
2016-12-18T04:11:00.595Z,1023.24
2016-12-18T04:11:22.343Z,1023.24
2016-12-18T04:11:49.872Z,1023.24
2016-12-18T04:12:11.726Z,1023.19
2016-12-18T04:12:34.470Z,1023.19
2016-12-18T04:12:57.513Z,1023.17
2016-12-18T04:13:19.338Z,1023.19
2016-12-18T04:14:07.636Z,1023.28
2016-12-18T04:15:05.558Z,1023.23
2016-12-18T04:15:27.376Z,1023.15
2016-12-18T04:15:49.236Z,1023.28
2016-12-18T04:16:10.991Z,1023.26
2016-12-18T04:16:38.526Z,1023.13
2016-12-18T04:17:00.467Z,1023.03
2016-12-18T04:17:49.765Z,1023.16
2016-12-18T04:18:12.507Z,1023.09
2016-12-18T04:18:34.577Z,1023.06
2016-12-18T04:19:01.089Z,1023.04
2016-12-18T04:19:27.591Z,1022.97
2016-12-18T04:20:25.356Z,1022.95
2016-12-18T04:20:56.440Z,1023.10
2016-12-18T04:21:18.177Z,1023.06
2016-12-18T04:21:41.923Z,1023.01
2016-12-18T04:22:08.474Z,1023.00
2016-12-18T04:22:30.218Z,1023.00
2016-12-18T04:22:55.860Z,1023.01
2016-12-18T04:23:48.944Z,1022.89
2016-12-18T04:24:10.807Z,1022.92
2016-12-18T04:24:38.567Z,1022.97
2016-12-18T04:25:00.710Z,1022.96
2016-12-18T04:25:22.443Z,1022.90
2016-12-18T04:25:44.186Z,1022.89
2016-12-18T04:26:10.731Z,1022.87
2016-12-18T04:26:32.468Z,1022.89
2016-12-18T04:26:59.126Z,1022.90
2016-12-18T04:27:22.912Z,1022.87
2016-12-18T04:27:45.148Z,1022.77
2016-12-18T04:28:11.731Z,1022.80
2016-12-18T04:28:33.482Z,1022.82
2016-12-18T04:28:55.453Z,1022.83
2016-12-18T04:29:17.509Z,1022.82
2016-12-18T04:29:39.928Z,1022.76
2016-12-18T04:30:06.427Z,1022.86
2016-12-18T04:30:30.870Z,1022.84
2016-12-18T04:30:52.795Z,1022.77
2016-12-18T04:31:14.655Z,1022.77
2016-12-18T04:31:37.631Z,1022.77
2016-12-18T04:31:59.412Z,1022.79
2016-12-18T04:32:53.446Z,1022.72
2016-12-18T04:33:20.008Z,1022.68
2016-12-18T04:33:42.739Z,1022.79
2016-12-18T04:34:04.591Z,1022.86
2016-12-18T04:34:31.093Z,1022.87
2016-12-18T04:34:53.833Z,1022.72
2016-12-18T04:35:16.580Z,1022.81
2016-12-18T04:35:44.208Z,1022.84
2016-12-18T04:36:10.719Z,1022.74
2016-12-18T04:36:33.535Z,1022.68
2016-12-18T04:36:55.640Z,1022.72
2016-12-18T04:37:18.515Z,1022.69
2016-12-18T04:37:48.042Z,1022.69
2016-12-18T04:38:09.790Z,1022.77
2016-12-18T04:38:31.522Z,1022.74
2016-12-18T04:39:24.647Z,1022.77
2016-12-18T04:39:46.506Z,1022.79
2016-12-18T04:40:14.315Z,1022.73
2016-12-18T04:40:36.043Z,1022.71
2016-12-18T04:40:57.993Z,1022.79
2016-12-18T04:41:19.744Z,1022.84
2016-12-18T04:41:41.519Z,1022.73
2016-12-18T04:42:34.514Z,1022.80
2016-12-18T04:42:56.255Z,1022.81
2016-12-18T04:43:18.060Z,1022.82
2016-12-18T04:43:40.033Z,1022.84
2016-12-18T04:44:01.940Z,1022.87
2016-12-18T04:44:33.410Z,1022.89
2016-12-18T04:44:56.160Z,1022.81
2016-12-18T04:45:21.547Z,1022.79
2016-12-18T04:45:43.445Z,1022.75
2016-12-18T04:46:31.732Z,1022.66
2016-12-18T04:46:58.300Z,1022.70
2016-12-18T04:47:24.878Z,1022.77
2016-12-18T04:47:47.629Z,1022.78
2016-12-18T04:48:09.368Z,1022.68
2016-12-18T04:48:35.871Z,1022.65
2016-12-18T04:49:24.130Z,1022.73
2016-12-18T04:49:50.697Z,1022.91
2016-12-18T04:50:18.378Z,1022.80
2016-12-18T04:50:40.187Z,1022.81
2016-12-18T04:51:01.987Z,1022.88
2016-12-18T04:51:23.851Z,1022.81
2016-12-18T04:51:46.736Z,1022.89
2016-12-18T04:52:13.238Z,1022.91
2016-12-18T04:53:01.604Z,1022.96
2016-12-18T04:53:23.369Z,1022.82
2016-12-18T04:53:54.675Z,1022.81
2016-12-18T04:54:21.249Z,1022.81
2016-12-18T04:54:42.983Z,1022.80
2016-12-18T04:55:05.712Z,1022.81
2016-12-18T04:55:54.968Z,1022.90
2016-12-18T04:57:19.417Z,1022.96
2016-12-18T04:57:41.157Z,1022.91
2016-12-18T04:58:03.909Z,1022.97
2016-12-18T04:58:30.410Z,1023.03
2016-12-18T04:58:52.422Z,1022.97
2016-12-18T04:59:14.408Z,1022.89
2016-12-18T04:59:37.347Z,1022.77
2016-12-18T05:00:04.005Z,1022.87
2016-12-18T05:00:30.519Z,1022.89
2016-12-18T05:00:59.812Z,1022.89
2016-12-18T05:01:32.077Z,1022.94
2016-12-18T05:01:59.937Z,1022.91
2016-12-18T05:02:22.000Z,1022.85
2016-12-18T05:02:44.806Z,1022.88
2016-12-18T05:03:34.150Z,1022.76
2016-12-18T05:04:00.663Z,1022.78
2016-12-18T05:04:27.158Z,1022.75
2016-12-18T05:05:43.114Z,1022.77
2016-12-18T05:06:06.148Z,1022.76
2016-12-18T05:06:28.085Z,1022.76
2016-12-18T05:06:50.043Z,1022.79
2016-12-18T05:07:12.902Z,1022.77
2016-12-18T05:08:03.236Z,1022.86
2016-12-18T05:08:29.740Z,1022.91
2016-12-18T05:08:52.470Z,1022.90
2016-12-18T05:09:16.724Z,1022.80
2016-12-18T05:09:38.468Z,1022.71
2016-12-18T05:10:01.208Z,1022.72
2016-12-18T05:10:23.939Z,1022.77
2016-12-18T05:10:46.684Z,1022.76
2016-12-18T05:11:39.682Z,1022.73
2016-12-18T05:12:38.608Z,1022.83
2016-12-18T05:13:07.104Z,1022.85
2016-12-18T05:13:38.367Z,1022.79
2016-12-18T05:14:04.882Z,1022.80
2016-12-18T05:14:26.769Z,1022.70
2016-12-18T05:14:53.314Z,1022.78
2016-12-18T05:15:24.695Z,1022.78
2016-12-18T05:15:56.965Z,1022.82
2016-12-18T05:16:23.479Z,1022.83
2016-12-18T05:16:52.869Z,1022.80
2016-12-18T05:17:19.495Z,1022.79
2016-12-18T05:17:46.063Z,1022.73
2016-12-18T05:18:13.555Z,1022.79
2016-12-18T05:18:35.358Z,1022.72
2016-12-18T05:19:02.031Z,1022.73
2016-12-18T05:19:28.570Z,1022.72
2016-12-18T05:20:26.358Z,1022.87
2016-12-18T05:20:53.028Z,1022.80
2016-12-18T05:21:15.027Z,1022.81
2016-12-18T05:21:36.913Z,1022.73
2016-12-18T05:22:34.762Z,1022.71
2016-12-18T05:22:56.492Z,1022.70
2016-12-18T05:23:23.084Z,1022.67
2016-12-18T05:23:45.123Z,1022.69
2016-12-18T05:24:07.094Z,1022.65
2016-12-18T05:24:29.003Z,1022.61
2016-12-18T05:25:17.388Z,1022.64
2016-12-18T05:25:39.124Z,1022.71
2016-12-18T05:26:00.869Z,1022.70
2016-12-18T05:26:23.812Z,1022.59
2016-12-18T05:26:45.697Z,1022.64
2016-12-18T05:27:08.612Z,1022.61
2016-12-18T05:27:30.372Z,1022.65
2016-12-18T05:27:52.392Z,1022.57
2016-12-18T05:28:14.192Z,1022.54
2016-12-18T05:28:39.787Z,1022.60
2016-12-18T05:29:01.550Z,1022.63
2016-12-18T05:29:23.608Z,1022.55
2016-12-18T05:29:46.043Z,1022.65
2016-12-18T05:30:07.931Z,1022.62
2016-12-18T05:30:34.428Z,1022.56
2016-12-18T05:30:57.575Z,1022.59
2016-12-18T05:31:19.484Z,1022.63
2016-12-18T05:31:42.357Z,1022.70
2016-12-18T05:32:06.503Z,1022.62
2016-12-18T05:32:28.464Z,1022.56
2016-12-18T05:32:50.329Z,1022.50
2016-12-18T05:33:12.191Z,1022.50
2016-12-18T05:33:43.473Z,1022.45
2016-12-18T05:34:09.984Z,1022.47
2016-12-18T05:34:32.734Z,1022.49
2016-12-18T05:34:59.232Z,1022.49
2016-12-18T05:35:25.739Z,1022.50
2016-12-18T05:35:48.543Z,1022.45
2016-12-18T05:36:10.331Z,1022.48
2016-12-18T05:36:37.981Z,1022.38
2016-12-18T05:36:59.708Z,1022.47
2016-12-18T05:37:53.745Z,1022.45
2016-12-18T05:38:15.499Z,1022.42